ADDS METAR Data INFO
IDs: Format: Raw Decoded Include TAF

Data at: 0158 UTC 21 Apr 2018

KSAT 210151Z 12013KT 10SM OVC024 18/12 A3004 RMK AO2 SLP161 T01780122
KSAT 210051Z 11015KT 10SM OVC025 18/12 A3003 RMK AO2 SLP156 T01780122
KSAT 202351Z 11013KT 10SM OVC023 18/12 A3004 RMK AO2 SLP159 T01780122 10178 20167 58018
KSAT 202251Z 11019G23KT 10SM OVC022 17/12 A3006 RMK AO2 SLP166 T01720122
KSAT 202151Z 10013KT 10SM OVC021 17/12 A3008 RMK AO2 SLP172 T01720117
KSAT 202051Z 10015KT 10SM BKN022 OVC030 17/11 A3009 RMK AO2 SLP178 T01670111 58024
KSAT 201951Z 11014KT 10SM FEW030 BKN046 OVC210 17/11 A3013 RMK AO2 PRESFR SLP191 T01720111
KSAT 201917Z 10007KT 10SM SCT024 OVC050 17/11 A3017 RMK AO2 T01720111
KSAT 201851Z 10006KT 10SM BKN023 OVC050 17/11 A3019 RMK AO2 SLP209 T01670106
KSAT 201751Z 10013KT 10SM BKN024 OVC047 17/11 A3017 RMK AO2 SLP202 T01670106 10172 20144 58021
KSAT 201651Z 09013KT 10SM FEW055 BKN250 17/09 A3018 RMK AO2 SLP206 T01720094
KSAT 201551Z 09011KT 10SM BKN050 OVC210 16/07 A3023 RMK AO2 SLP223 T01610072
KSAT 201451Z 08008KT 10SM BKN046 OVC170 16/07 A3023 RMK AO2 SLP222 T01560067 51022
KSAT 201351Z COR 09009KT 10SM BKN047 OVC180 15/06 A3022 RMK AO2 SLP219 T01500061
KSAT 201251Z 08010G17KT 10SM BKN047 OVC200 15/06 A3019 RMK AO2 SLP209 T01500056
KSAT 201151Z 09011KT 10SM SCT050 BKN200 15/05 A3016 RMK AO2 SLP199 T01500050 10167 20144 58003
KSAT 201051Z 09006KT 10SM OVC180 15/05 A3018 RMK AO2 SLP207 T01500050
KSAT 200951Z 09006KT 10SM BKN200 15/04 A3018 RMK AO2 SLP204 T01500039
KSAT 200851Z 03005KT 10SM BKN200 15/04 A3017 RMK AO2 SLP202 T01500039 58015
KSAT 200751Z COR 07004KT 10SM BKN200 16/04 A3019 RMK AO2 SLP210 T01560039
KSAT 200651Z 05006KT 10SM BKN190 16/03 A3020 RMK AO2 SLP211 T01610033
KSAT 200551Z 06006KT 10SM BKN200 17/03 A3021 RMK AO2 SLP217 T01670033 10228 20167 402500156 58000
KSAT 200451Z 07005KT 10SM BKN240 17/04 A3022 RMK AO2 SLP219 T01670039
KSAT 200351Z 07005KT 10SM BKN240 18/03 A3023 RMK AO2 SLP221 T01780033
KSAT 200251Z 07007KT 10SM SCT250 19/03 A3022 RMK AO2 SLP218 T01890028 53003
KSAT 200151Z 06007KT 10SM BKN250 21/02 A3020 RMK AO2 SLP214 T02060022
KSAT 200051Z COR 06007KT 10SM BKN200 22/02 A3021 RMK AO2 SLP214 T02220017
KSAT 192351Z 09008KT 10SM SCT250 23/01 A3021 RMK AO2 SLP214 T02280011 10250 20228 55007
KSAT 192251Z 10011KT 10SM SCT250 23/02 A3020 RMK AO2 SLP214 T02330022
KSAT 192151Z 07012G17KT 10SM SCT250 25/02 A3021 RMK AO2 SLP217 T02500017
KSAT 192051Z 09012KT 10SM FEW250 25/03 A3023 RMK AO2 SLP221 T02500028 58025
KSAT 191951Z 06012G20KT 10SM FEW250 25/02 A3026 RMK AO2 SLP230 T02500022
KSAT 191851Z 07011KT 10SM FEW070 FEW250 24/03 A3029 RMK AO2 SLP240 T02390028
KSAT 191751Z 07010G19KT 10SM FEW070 SCT250 23/03 A3031 RMK AO2 SLP247 T02330028 10233 20156 58001
KSAT 191651Z 06011KT 10SM FEW065 FEW250 22/02 A3032 RMK AO2 SLP252 T02220022
KSAT 191551Z 05012KT 10SM FEW065 SCT250 21/01 A3033 RMK AO2 SLP256 T02060011
KSAT 191451Z 06015G25KT 10SM BKN060 BKN250 18/00 A3031 RMK AO2 SLP249 T01780000 51025